Time;durP1;ratioP1;P1;durP2;ratioP2;P2;SDS_P1;SDS_P2;PMS_P1;PMS_P2;Temp;Humidity;BMP_temperature;BMP_pressure;BME280_temperature;BME280_humidity;BME280_pressure;Samples;Min_cycle;Max_cycle;Signal;HPM_P1;HPM_P2
2022/09/21 00:00:40;;;;;;;7.03;3.03;;;;;;;;;;5030115;28;20099;-57
2022/09/21 00:03:06;;;;;;;5.93;3.15;;;;;;;;;;5027317;28;20029;-57
2022/09/21 00:05:32;;;;;;;9.55;4.18;;;;;;;;;;5031472;28;20120;-57
2022/09/21 00:08:09;;;;;;;12.57;4.78;;;;;;;;;;5034391;28;20029;-57
2022/09/21 00:10:34;;;;;;;7.00;4.03;;;;;;;;;;5028068;28;20487;-57
2022/09/21 00:13:01;;;;;;;13.32;4.47;;;;;;;;;;5029778;28;20036;-57
2022/09/21 00:15:28;;;;;;;7.53;4.07;;;;;;;;;;5029730;28;20065;-57
2022/09/21 00:17:55;;;;;;;9.38;4.25;;;;;;;;;;5029835;28;20083;-57
2022/09/21 00:20:23;;;;;;;9.48;4.15;;;;;;;;;;5030085;28;20017;-57
2022/09/21 00:22:49;;;;;;;6.05;4.00;;;;;;;;;;5028615;28;20414;-57
2022/09/21 00:25:14;;;;;;;15.57;4.20;;;;;;;;;;5031723;28;20485;-57
2022/09/21 00:27:40;;;;;;;9.27;4.00;;;;;;;;;;5035546;28;20029;-57
2022/09/21 00:30:06;;;;;;;8.23;4.20;;;;;;;;;;5029169;28;20076;-57
2022/09/21 00:32:34;;;;;;;8.05;4.15;;;;;;;;;;5029182;28;20029;-57
2022/09/21 00:35:01;;;;;;;9.43;3.92;;;;;;;;;;5028841;28;20030;-57
2022/09/21 00:37:28;;;;;;;6.18;3.72;;;;;;;;;;5029588;28;20164;-57
2022/09/21 00:39:54;;;;;;;12.10;4.30;;;;;;;;;;5029315;28;20068;-57
2022/09/21 00:42:25;;;;;;;9.63;4.10;;;;;;;;;;5027734;28;20506;-57
2022/09/21 00:44:51;;;;;;;8.02;3.85;;;;;;;;;;5033354;28;20139;-57
2022/09/21 00:47:20;;;;;;;9.27;3.90;;;;;;;;;;5026864;28;20083;-57
2022/09/21 00:49:49;;;;;;;;;;;;;;;;;;5029624;28;20055;-57
2022/09/21 00:52:18;;;;;;;7.95;4.30;;;;;;;;;;5028634;28;19917;-57
2022/09/21 00:54:53;;;;;;;6.22;3.83;;;;;;;;;;5028479;28;20026;-57
2022/09/21 00:57:23;;;;;;;10.07;4.30;;;;;;;;;;5028997;28;20048;-57
2022/09/21 00:59:53;;;;;;;8.82;3.83;;;;;;;;;;5027888;28;20029;-57
2022/09/21 01:02:18;;;;;;;7.32;4.03;;;;;;;;;;5027916;28;20077;-58
2022/09/21 01:04:44;;;;;;;6.40;3.65;;;;;;;;;;5027907;28;20056;-57
2022/09/21 01:07:14;;;;;;;7.25;4.15;;;;;;;;;;5032645;28;20401;-57
2022/09/21 01:09:42;;;;;;;8.68;3.95;;;;;;;;;;5033309;28;20029;-57
2022/09/21 01:12:21;;;;;;;8.75;4.20;;;;;;;;;;5028123;28;20036;-57
2022/09/21 01:15:21;;;;;;;7.93;3.72;;;;;;;;;;5027972;28;20118;-57
2022/09/21 01:18:05;;;;;;;;;;;;;;;;;;5027891;28;20395;-58
2022/09/21 01:20:52;;;;;;;10.18;4.07;;;;;;;;;;5028976;28;19913;-58
2022/09/21 01:23:43;;;;;;;6.97;3.92;;;;;;;;;;5025838;28;20035;-58
2022/09/21 01:26:36;;;;;;;6.97;3.88;;;;;;;;;;5028815;28;20586;-58
2022/09/21 01:29:38;;;;;;;6.72;3.40;;;;;;;;;;5028933;28;20025;-58
2022/09/21 01:32:07;;;;;;;9.63;4.13;;;;;;;;;;5022156;28;20376;-58
2022/09/21 01:34:53;;;;;;;6.53;3.70;;;;;;;;;;5028459;28;20029;-58
2022/09/21 01:37:23;;;;;;;7.15;3.92;;;;;;;;;;5028679;28;20087;-58
2022/09/21 01:39:54;;;;;;;8.13;4.03;;;;;;;;;;5027281;28;20113;-58
2022/09/21 01:42:21;;;;;;;6.80;3.95;;;;;;;;;;5027344;28;20032;-58
2022/09/21 01:44:48;;;;;;;7.63;3.50;;;;;;;;;;5028593;28;20163;-58
2022/09/21 01:47:17;;;;;;;8.05;3.90;;;;;;;;;;5022387;28;20420;-58
2022/09/21 01:49:47;;;;;;;7.55;4.30;;;;;;;;;;5027180;28;20033;-58
2022/09/21 01:52:15;;;;;;;;;;;;;;;;;;5027987;28;20494;-58
2022/09/21 01:54:48;;;;;;;8.35;4.00;;;;;;;;;;5026384;28;19921;-58
2022/09/21 01:57:28;;;;;;;6.68;3.83;;;;;;;;;;5022124;28;20506;-58
2022/09/21 01:59:57;;;;;;;6.25;3.88;;;;;;;;;;5028740;28;20037;-58
2022/09/21 02:02:30;;;;;;;7.25;3.83;;;;;;;;;;5027826;28;20569;-58
2022/09/21 02:04:57;;;;;;;12.25;4.43;;;;;;;;;;5026769;28;20033;-58
2022/09/21 02:07:23;;;;;;;14.52;7.03;;;;;;;;;;5030565;28;20044;-57
2022/09/21 02:09:49;;;;;;;18.55;8.07;;;;;;;;;;5029733;28;20476;-58
2022/09/21 02:12:15;;;;;;;14.00;6.55;;;;;;;;;;5027887;28;20029;-58
2022/09/21 02:14:40;;;;;;;11.90;6.13;;;;;;;;;;5028485;28;20029;-58
2022/09/21 02:17:13;;;;;;;8.40;4.35;;;;;;;;;;5022999;28;20436;-58
2022/09/21 02:19:50;;;;;;;8.55;3.95;;;;;;;;;;5027848;28;20105;-58
2022/09/21 02:22:34;;;;;;;7.07;3.35;;;;;;;;;;5023538;28;20022;-58
2022/09/21 02:25:09;;;;;;;8.38;3.78;;;;;;;;;;5022631;28;20030;-58
2022/09/21 02:28:03;;;;;;;6.15;3.60;;;;;;;;;;5032212;28;20513;-58
2022/09/21 02:30:32;;;;;;;7.97;3.42;;;;;;;;;;5028539;28;20049;-58
2022/09/21 02:33:23;;;;;;;5.15;3.05;;;;;;;;;;5030528;28;20063;-58
2022/09/21 02:35:53;;;;;;;10.27;3.47;;;;;;;;;;5030700;28;20258;-58
2022/09/21 02:38:32;;;;;;;13.55;4.50;;;;;;;;;;5032374;28;20021;-58
2022/09/21 02:41:29;;;;;;;9.82;4.43;;;;;;;;;;5032171;28;20033;-57
2022/09/21 02:44:01;;;;;;;9.77;4.22;;;;;;;;;;5031602;28;20033;-57
2022/09/21 02:46:33;;;;;;;8.63;4.13;;;;;;;;;;5030861;28;20026;-57
2022/09/21 02:49:07;;;;;;;5.22;2.97;;;;;;;;;;5031451;28;20021;-57
2022/09/21 02:51:37;;;;;;;6.28;3.10;;;;;;;;;;5030346;28;20029;-57
2022/09/21 02:54:07;;;;;;;4.40;2.90;;;;;;;;;;5028771;28;20507;-57
2022/09/21 02:56:33;;;;;;;7.40;3.78;;;;;;;;;;5031475;28;20053;-57
2022/09/21 02:59:03;;;;;;;8.00;3.30;;;;;;;;;;5030482;28;20041;-57
2022/09/21 03:01:29;;;;;;;;;;;;;;;;;;5032345;28;20024;-57
2022/09/21 03:03:55;;;;;;;5.55;2.90;;;;;;;;;;5030351;28;19919;-57
2022/09/21 03:06:20;;;;;;;5.05;3.03;;;;;;;;;;5030320;28;20378;-57
2022/09/21 03:08:45;;;;;;;6.07;3.13;;;;;;;;;;5032199;28;20037;-57
2022/09/21 03:11:16;;;;;;;4.97;2.83;;;;;;;;;;5028627;28;20021;-57
2022/09/21 03:13:41;;;;;;;4.45;2.95;;;;;;;;;;5030225;28;20114;-57
2022/09/21 03:16:07;;;;;;;4.93;2.72;;;;;;;;;;5030064;28;20479;-57
2022/09/21 03:18:33;;;;;;;4.88;3.00;;;;;;;;;;5030461;28;20030;-57
2022/09/21 03:21:01;;;;;;;5.93;3.22;;;;;;;;;;5031812;28;20017;-57
2022/09/21 03:23:27;;;;;;;4.00;2.80;;;;;;;;;;5030068;28;20041;-57
2022/09/21 03:25:53;;;;;;;4.22;2.58;;;;;;;;;;5034380;28;20526;-57
2022/09/21 03:28:19;;;;;;;3.58;2.70;;;;;;;;;;5035751;28;20029;-57
2022/09/21 03:30:46;;;;;;;4.32;2.60;;;;;;;;;;5028940;28;20026;-57
2022/09/21 03:33:12;;;;;;;4.95;2.75;;;;;;;;;;5030577;28;20487;-57
2022/09/21 03:35:38;;;;;;;6.18;2.97;;;;;;;;;;5032680;28;20036;-57
2022/09/21 03:38:04;;;;;;;6.22;3.08;;;;;;;;;;5030360;28;20037;-57
2022/09/21 03:40:30;;;;;;;5.25;2.67;;;;;;;;;;5067041;28;20025;-57
2022/09/21 03:42:56;;;;;;;6.28;2.90;;;;;;;;;;5030226;28;20021;-57
2022/09/21 03:45:21;;;;;;;4.22;2.75;;;;;;;;;;5035194;28;20410;-57
2022/09/21 03:47:47;;;;;;;5.60;3.03;;;;;;;;;;5029606;28;20026;-57
2022/09/21 03:50:13;;;;;;;5.55;3.10;;;;;;;;;;5030868;28;20048;-57
2022/09/21 03:52:39;;;;;;;5.95;3.17;;;;;;;;;;5028610;28;20116;-57
2022/09/21 03:55:06;;;;;;;5.18;3.67;;;;;;;;;;5029319;28;20113;-57
2022/09/21 03:57:33;;;;;;;7.95;4.10;;;;;;;;;;5030167;28;20048;-57
2022/09/21 03:59:59;;;;;;;8.60;3.88;;;;;;;;;;5031100;28;20049;-57
2022/09/21 04:02:24;;;;;;;5.72;2.95;;;;;;;;;;5028731;28;20067;-57
2022/09/21 04:04:49;;;;;;;5.72;3.20;;;;;;;;;;5029863;28;20033;-57
2022/09/21 04:07:15;;;;;;;3.92;2.50;;;;;;;;;;5028584;28;20327;-57
2022/09/21 04:09:40;;;;;;;5.03;3.00;;;;;;;;;;5028810;28;20082;-58
2022/09/21 04:12:06;;;;;;;6.50;2.63;;;;;;;;;;5029936;28;20129;-57
2022/09/21 04:14:32;;;;;;;5.25;2.92;;;;;;;;;;5029863;28;20025;-57
2022/09/21 04:16:58;;;;;;;3.75;2.80;;;;;;;;;;5030509;28;20026;-57
2022/09/21 04:19:23;;;;;;;6.00;3.40;;;;;;;;;;5029464;28;20033;-57
2022/09/21 04:21:50;;;;;;;9.73;4.15;;;;;;;;;;5030463;28;20033;-57
2022/09/21 04:24:17;;;;;;;7.18;4.22;;;;;;;;;;5027377;28;20025;-57
2022/09/21 04:26:43;;;;;;;7.18;4.00;;;;;;;;;;5028215;28;20025;-57
2022/09/21 04:29:09;;;;;;;4.93;3.22;;;;;;;;;;5033903;28;20025;-57
2022/09/21 04:31:35;;;;;;;6.60;3.20;;;;;;;;;;5028377;28;20395;-57
2022/09/21 04:34:00;;;;;;;5.10;2.70;;;;;;;;;;5037579;28;20041;-57
2022/09/21 04:36:27;;;;;;;5.82;2.70;;;;;;;;;;5033513;28;21057;-57
2022/09/21 04:38:52;;;;;;;4.15;3.00;;;;;;;;;;5029022;28;20033;-57
2022/09/21 04:41:18;;;;;;;8.93;2.90;;;;;;;;;;5027359;28;20411;-57
2022/09/21 04:43:45;;;;;;;5.53;2.50;;;;;;;;;;5025612;28;20025;-58
2022/09/21 04:46:13;;;;;;;4.55;3.15;;;;;;;;;;5027488;28;20068;-58
2022/09/21 04:48:39;;;;;;;9.43;3.50;;;;;;;;;;5027799;28;20021;-58
2022/09/21 04:51:06;;;;;;;10.10;4.10;;;;;;;;;;5029883;28;20122;-57
2022/09/21 04:53:33;;;;;;;8.98;4.03;;;;;;;;;;5028191;28;20538;-58
2022/09/21 04:55:58;;;;;;;8.00;3.72;;;;;;;;;;5026648;28;20025;-58
2022/09/21 04:58:24;;;;;;;5.55;3.58;;;;;;;;;;5028594;28;20506;-60
2022/09/21 05:00:54;;;;;;;8.60;3.45;;;;;;;;;;5032661;28;20363;-55
2022/09/21 05:03:19;;;;;;;;;;;;;;;;;;5032117;28;20103;-55
2022/09/21 05:05:49;;;;;;;5.70;3.30;;;;;;;;;;5028154;28;20367;-60
2022/09/21 05:08:15;;;;;;;;;;;;;;;;;;5029063;28;20435;-60
2022/09/21 05:10:40;;;;;;;8.65;3.38;;;;;;;;;;5028071;28;19963;-61
2022/09/21 05:13:06;;;;;;;6.68;3.67;;;;;;;;;;5025407;28;20069;-60
2022/09/21 05:15:31;;;;;;;7.88;3.40;;;;;;;;;;5027781;28;21049;-59
2022/09/21 05:17:57;;;;;;;5.88;3.25;;;;;;;;;;5031838;28;20570;-59
2022/09/21 05:20:22;;;;;;;6.13;3.00;;;;;;;;;;5031931;28;20029;-59
2022/09/21 05:22:48;;;;;;;7.07;3.15;;;;;;;;;;5031014;28;20040;-59
2022/09/21 05:25:13;;;;;;;6.95;3.50;;;;;;;;;;5027191;28;20041;-59
2022/09/21 05:27:38;;;;;;;5.50;3.40;;;;;;;;;;5028063;28;20029;-59
2022/09/21 05:30:05;;;;;;;6.38;4.45;;;;;;;;;;5033481;28;20041;-60
2022/09/21 05:32:46;;;;;;;8.43;4.53;;;;;;;;;;5026511;28;20030;-60
2022/09/21 05:35:37;;;;;;;8.43;4.72;;;;;;;;;;5023712;28;20048;-60
2022/09/21 05:38:18;;;;;;;11.82;5.50;;;;;;;;;;5026325;28;20120;-59
2022/09/21 05:40:45;;;;;;;9.40;5.50;;;;;;;;;;5027465;28;20026;-59
2022/09/21 05:43:10;;;;;;;8.20;5.22;;;;;;;;;;5027702;28;20380;-59
2022/09/21 05:45:44;;;;;;;9.52;5.18;;;;;;;;;;5030771;28;20124;-59
2022/09/21 05:48:24;;;;;;;10.85;5.00;;;;;;;;;;5027694;28;20033;-59
2022/09/21 05:51:00;;;;;;;;;;;;;;;;;;5030376;28;20359;-59
2022/09/21 05:53:37;;;;;;;8.18;3.75;;;;;;;;;;5031436;28;19913;-60
2022/09/21 05:56:25;;;;;;;7.72;4.53;;;;;;;;;;5027278;28;20061;-59
2022/09/21 05:58:59;;;;;;;6.50;3.83;;;;;;;;;;5028293;28;20044;-59
2022/09/21 06:01:43;;;;;;;6.75;3.80;;;;;;;;;;5030051;28;20034;-59
2022/09/21 06:04:13;;;;;;;6.28;3.83;;;;;;;;;;5032507;28;20025;-59
2022/09/21 06:06:38;;;;;;;;;;;;;;;;;;5031553;28;20037;-59
2022/09/21 06:09:04;;;;;;;5.80;4.00;;;;;;;;;;5031579;28;19920;-60
2022/09/21 06:11:29;;;;;;;8.02;4.90;;;;;;;;;;5031647;28;20029;-59
2022/09/21 06:13:55;;;;;;;8.38;4.85;;;;;;;;;;5030917;28;20024;-58
2022/09/21 06:16:20;;;;;;;13.15;7.25;;;;;;;;;;5031462;28;20095;-59
2022/09/21 06:18:45;;;;;;;16.05;7.00;;;;;;;;;;5035971;28;20123;-59
2022/09/21 06:21:11;;;;;;;13.43;6.22;;;;;;;;;;5029840;28;20045;-59
2022/09/21 06:23:36;;;;;;;10.48;5.60;;;;;;;;;;5030795;28;20037;-59
2022/09/21 06:26:02;;;;;;;16.75;7.15;;;;;;;;;;5030729;28;20025;-59
2022/09/21 06:28:28;;;;;;;19.30;8.90;;;;;;;;;;5031611;28;20029;-59
2022/09/21 06:30:55;;;;;;;22.92;10.75;;;;;;;;;;5035537;28;20029;-59
2022/09/21 06:33:22;;;;;;;25.38;10.57;;;;;;;;;;5030247;28;20506;-61
2022/09/21 06:35:52;;;;;;;21.08;11.50;;;;;;;;;;5029157;28;20537;-59
2022/09/21 06:38:17;;;;;;;;;;;;;;;;;;5021877;28;20032;-59
2022/09/21 06:40:42;;;;;;;18.65;10.63;;;;;;;;;;5030479;28;20023;-59
2022/09/21 06:43:08;;;;;;;25.65;13.13;;;;;;;;;;5029847;28;20064;-59
2022/09/21 06:45:33;;;;;;;23.05;12.23;;;;;;;;;;5034871;28;20037;-59
2022/09/21 06:47:58;;;;;;;20.40;11.55;;;;;;;;;;5050042;28;20278;-59
2022/09/21 06:50:24;;;;;;;29.08;15.10;;;;;;;;;;5030893;28;20495;-59
2022/09/21 06:52:50;;;;;;;26.85;14.10;;;;;;;;;;5032329;28;20033;-59
2022/09/21 06:55:15;;;;;;;20.02;10.88;;;;;;;;;;5028092;28;20056;-59
2022/09/21 06:57:41;;;;;;;18.60;8.95;;;;;;;;;;5029067;28;20033;-59
2022/09/21 07:00:09;;;;;;;14.57;7.10;;;;;;;;;;5029947;28;20026;-58
2022/09/21 07:02:35;;;;;;;12.63;6.60;;;;;;;;;;5029716;28;20487;-59
2022/09/21 07:05:00;;;;;;;12.52;6.50;;;;;;;;;;5030979;28;20033;-60
2022/09/21 07:07:29;;;;;;;15.10;6.60;;;;;;;;;;5035108;28;20302;-59
2022/09/21 07:09:54;;;;;;;14.23;7.00;;;;;;;;;;5031326;28;20029;-59
2022/09/21 07:12:20;;;;;;;16.95;7.22;;;;;;;;;;5027951;28;20029;-59
2022/09/21 07:14:46;;;;;;;15.63;6.75;;;;;;;;;;5029891;28;20135;-60
2022/09/21 07:17:13;;;;;;;13.63;6.53;;;;;;;;;;5030743;28;20049;-60
2022/09/21 07:19:39;;;;;;;10.02;5.43;;;;;;;;;;5031916;28;20419;-59
2022/09/21 07:22:04;;;;;;;10.65;5.88;;;;;;;;;;5030311;28;20029;-59
2022/09/21 07:24:30;;;;;;;18.88;7.38;;;;;;;;;;5030975;28;20040;-60
2022/09/21 07:26:55;;;;;;;20.15;8.77;;;;;;;;;;5029973;28;20025;-59
2022/09/21 07:29:20;;;;;;;13.15;6.55;;;;;;;;;;5033938;28;20032;-60
2022/09/21 07:31:46;;;;;;;9.20;5.63;;;;;;;;;;5033003;28;20021;-60
2022/09/21 07:34:12;;;;;;;12.75;5.93;;;;;;;;;;5035316;28;20104;-61
2022/09/21 07:36:37;;;;;;;11.48;6.00;;;;;;;;;;5030189;28;20167;-60
2022/09/21 07:39:03;;;;;;;10.38;5.97;;;;;;;;;;5032146;28;20068;-60
2022/09/21 07:41:28;;;;;;;15.55;7.03;;;;;;;;;;5039830;28;20032;-60
2022/09/21 07:43:54;;;;;;;14.75;8.07;;;;;;;;;;5037107;28;20038;-60
2022/09/21 07:46:19;;;;;;;15.15;8.55;;;;;;;;;;5034310;28;20418;-62
2022/09/21 07:48:45;;;;;;;16.70;7.90;;;;;;;;;;5037021;28;20021;-60
2022/09/21 07:51:13;;;;;;;14.27;7.57;;;;;;;;;;5030921;28;20470;-60
2022/09/21 07:53:40;;;;;;;13.30;7.65;;;;;;;;;;5027340;28;20025;-60
2022/09/21 07:56:07;;;;;;;12.07;7.38;;;;;;;;;;5033160;28;20455;-60
2022/09/21 08:01:18;;;;;;;10.73;6.72;;;;;;;;;;5022217;28;20545;-60
2022/09/21 08:03:44;;;;;;;10.70;6.20;;;;;;;;;;5030562;28;20113;-60
2022/09/21 08:06:09;;;;;;;13.32;6.30;;;;;;;;;;5033891;28;20118;-59
2022/09/21 08:08:35;;;;;;;18.83;6.60;;;;;;;;;;5035045;28;20028;-60
2022/09/21 08:11:05;;;;;;;16.05;6.75;;;;;;;;;;5028645;28;20017;-60
2022/09/21 08:13:31;;;;;;;14.27;7.20;;;;;;;;;;5027730;28;20087;-60
2022/09/21 08:16:00;;;;;;;13.23;7.07;;;;;;;;;;5028285;28;20021;-60
2022/09/21 08:18:26;;;;;;;;;;;;;;;;;;5029748;28;20082;-60
2022/09/21 08:20:53;;;;;;;13.38;7.85;;;;;;;;;;5030250;28;20347;-60
2022/09/21 08:23:18;;;;;;;15.05;7.78;;;;;;;;;;5028448;28;20043;-60
2022/09/21 08:25:44;;;;;;;14.50;7.88;;;;;;;;;;5028360;28;20547;-60
2022/09/21 08:28:10;;;;;;;8.65;6.28;;;;;;;;;;5028979;28;20039;-60
2022/09/21 08:30:35;;;;;;;10.88;6.35;;;;;;;;;;5028407;28;20403;-60
2022/09/21 08:33:00;;;;;;;12.15;7.00;;;;;;;;;;5027674;28;20033;-60
2022/09/21 08:35:26;;;;;;;13.95;6.38;;;;;;;;;;5028850;28;20029;-60
2022/09/21 08:37:53;;;;;;;14.85;7.13;;;;;;;;;;5028895;28;20104;-60
2022/09/21 08:40:19;;;;;;;11.32;6.47;;;;;;;;;;5029656;28;20458;-60
2022/09/21 08:43:02;;;;;;;11.50;6.38;;;;;;;;;;5027522;28;20530;-60
2022/09/21 08:45:33;;;;;;;13.50;6.97;;;;;;;;;;5029970;28;20061;-60
2022/09/21 08:48:04;;;;;;;14.05;6.65;;;;;;;;;;5032901;28;20268;-60
2022/09/21 08:50:36;;;;;;;9.57;5.75;;;;;;;;;;5027815;28;20487;-61
2022/09/21 08:53:10;;;;;;;10.43;5.68;;;;;;;;;;5029127;28;20033;-61
2022/09/21 08:55:35;;;;;;;12.55;5.97;;;;;;;;;;5025286;28;20501;-60
2022/09/21 08:58:01;;;;;;;9.73;5.38;;;;;;;;;;5027946;28;20029;-60
2022/09/21 09:00:33;;;;;;;9.98;5.72;;;;;;;;;;5028009;28;20029;-60
2022/09/21 09:03:49;;;;;;;9.15;5.38;;;;;;;;;;5027138;28;20021;-60
2022/09/21 09:06:21;;;;;;;9.18;5.53;;;;;;;;;;4964467;28;20115;-60
2022/09/21 09:09:08;;;;;;;10.77;5.47;;;;;;;;;;5016828;28;20034;-60
2022/09/21 09:11:43;;;;;;;6.40;5.03;;;;;;;;;;5029540;28;20091;-60
2022/09/21 09:14:33;;;;;;;10.00;5.47;;;;;;;;;;5027982;28;20036;-60
2022/09/21 09:17:19;;;;;;;12.43;5.53;;;;;;;;;;5029566;28;20100;-60
2022/09/21 09:19:57;;;;;;;9.25;5.53;;;;;;;;;;5027348;28;20573;-60
2022/09/21 09:22:28;;;;;;;8.32;5.30;;;;;;;;;;5025784;28;20120;-60
2022/09/21 09:24:58;;;;;;;10.63;5.07;;;;;;;;;;5030537;28;20091;-60
2022/09/21 09:27:35;;;;;;;10.80;5.65;;;;;;;;;;5032251;28;20266;-60
2022/09/21 09:30:00;;;;;;;9.68;4.75;;;;;;;;;;5033466;28;20026;-60
2022/09/21 09:32:47;;;;;;;8.57;4.75;;;;;;;;;;5027232;28;20060;-60
2022/09/21 09:35:15;;;;;;;9.68;4.70;;;;;;;;;;5030459;28;20048;-61
2022/09/21 09:37:42;;;;;;;8.98;4.15;;;;;;;;;;5026123;28;20034;-60
2022/09/21 09:40:12;;;;;;;8.48;4.00;;;;;;;;;;5032689;28;20510;-60
2022/09/21 09:42:46;;;;;;;6.25;3.92;;;;;;;;;;5030703;28;20487;-60
2022/09/21 09:45:42;;;;;;;5.53;3.80;;;;;;;;;;5024971;28;20505;-60
2022/09/21 09:48:37;;;;;;;5.93;3.70;;;;;;;;;;5028208;28;20025;-60
2022/09/21 09:51:03;;;;;;;8.52;3.92;;;;;;;;;;5019957;28;20029;-60
2022/09/21 09:53:30;;;;;;;7.95;3.03;;;;;;;;;;5026752;28;20072;-60
2022/09/21 09:55:57;;;;;;;8.45;4.30;;;;;;;;;;5028734;28;20021;-60
2022/09/21 09:58:45;;;;;;;9.07;4.10;;;;;;;;;;5026829;28;20025;-60
2022/09/21 10:01:41;;;;;;;9.32;3.50;;;;;;;;;;5016890;28;20514;-60
2022/09/21 10:04:09;;;;;;;10.20;3.58;;;;;;;;;;5027244;28;20040;-60
2022/09/21 10:06:35;;;;;;;8.07;3.60;;;;;;;;;;5024929;28;20045;-60
2022/09/21 10:09:16;;;;;;;6.13;3.47;;;;;;;;;;5026015;28;20044;-60
2022/09/21 10:11:41;;;;;;;5.97;3.92;;;;;;;;;;5028774;28;20076;-60
2022/09/21 10:14:09;;;;;;;4.95;3.47;;;;;;;;;;5028711;28;20029;-61
2022/09/21 10:16:40;;;;;;;7.93;4.03;;;;;;;;;;5024468;28;20029;-61
2022/09/21 10:19:12;;;;;;;7.50;3.75;;;;;;;;;;5025053;28;20521;-59
2022/09/21 10:21:42;;;;;;;6.22;3.33;;;;;;;;;;5025720;28;20026;-60
2022/09/21 10:24:34;;;;;;;5.55;3.35;;;;;;;;;;5025333;28;20033;-60
2022/09/21 10:27:09;;;;;;;6.57;2.13;;;;;;;;;;5024698;28;20390;-60
2022/09/21 10:29:38;;;;;;;3.65;2.20;;;;;;;;;;5027662;28;20033;-60
2022/09/21 10:32:25;;;;;;;1.88;1.48;;;;;;;;;;5037972;28;20036;-60
2022/09/21 10:35:11;;;;;;;2.78;1.40;;;;;;;;;;5028855;28;20025;-60
2022/09/21 10:37:45;;;;;;;3.70;1.48;;;;;;;;;;5030691;28;20449;-60
2022/09/21 10:40:16;;;;;;;4.35;1.35;;;;;;;;;;5024132;28;20044;-60
2022/09/21 10:42:42;;;;;;;1.50;1.08;;;;;;;;;;5023945;28;20037;-60
2022/09/21 10:45:19;;;;;;;1.58;1.02;;;;;;;;;;5027645;28;20033;-60
2022/09/21 10:47:55;;;;;;;2.33;1.20;;;;;;;;;;5034622;28;20116;-60
2022/09/21 10:50:40;;;;;;;2.20;1.25;;;;;;;;;;5032757;28;20026;-60
2022/09/21 10:53:08;;;;;;;1.20;1.00;;;;;;;;;;5028297;28;20029;-61
2022/09/21 10:55:48;;;;;;;3.30;2.03;;;;;;;;;;5027334;28;20406;-59
2022/09/21 10:58:14;;;;;;;;;;;;;;;;;;5027783;28;20045;-60
2022/09/21 11:00:46;;;;;;;3.38;1.90;;;;;;;;;;5028464;28;19936;-60
2022/09/21 11:03:29;;;;;;;1.67;1.00;;;;;;;;;;5028181;28;20483;-60
2022/09/21 11:06:01;;;;;;;2.85;1.13;;;;;;;;;;5026220;28;20114;-59
2022/09/21 11:08:32;;;;;;;2.33;1.00;;;;;;;;;;5029326;28;20025;-59
2022/09/21 11:11:38;;;;;;;2.05;0.90;;;;;;;;;;5029790;28;20041;-58
2022/09/21 11:14:06;;;;;;;1.83;0.90;;;;;;;;;;5029759;28;20506;-59
2022/09/21 11:16:59;;;;;;;4.72;2.65;;;;;;;;;;5029578;28;20388;-60
2022/09/21 11:19:27;;;;;;;2.65;1.52;;;;;;;;;;5028568;28;20036;-60
2022/09/21 11:21:54;;;;;;;2.20;1.10;;;;;;;;;;5029008;28;20028;-59
2022/09/21 11:24:43;;;;;;;2.03;1.00;;;;;;;;;;5030609;28;20283;-60
2022/09/21 11:27:15;;;;;;;1.20;1.00;;;;;;;;;;5032463;28;20025;-60
2022/09/21 11:29:53;;;;;;;1.30;0.90;;;;;;;;;;5028078;28;20064;-60
2022/09/21 11:32:45;;;;;;;1.85;1.08;;;;;;;;;;5032722;28;20124;-60
2022/09/21 11:35:10;;;;;;;1.67;1.02;;;;;;;;;;5029266;28;20063;-60
2022/09/21 11:37:51;;;;;;;1.40;1.00;;;;;;;;;;5029144;28;20025;-60
2022/09/21 11:40:28;;;;;;;5.43;1.17;;;;;;;;;;5026152;28;20057;-60
2022/09/21 11:42:56;;;;;;;4.75;1.17;;;;;;;;;;5026331;28;20021;-60
2022/09/21 11:45:28;;;;;;;3.75;1.15;;;;;;;;;;5027250;28;20144;-60
2022/09/21 11:48:15;;;;;;;3.05;1.00;;;;;;;;;;5026983;28;20029;-60
2022/09/21 11:50:49;;;;;;;1.83;1.00;;;;;;;;;;5026684;28;20021;-60
2022/09/21 11:53:21;;;;;;;2.08;1.17;;;;;;;;;;5026478;28;20418;-60
2022/09/21 11:55:52;;;;;;;4.72;1.20;;;;;;;;;;5026496;28;20498;-60
2022/09/21 11:58:27;;;;;;;2.33;1.17;;;;;;;;;;5051430;28;20418;-59
2022/09/21 12:01:06;;;;;;;2.70;1.48;;;;;;;;;;5025359;28;20116;-60
2022/09/21 12:04:02;;;;;;;1.70;0.90;;;;;;;;;;5027315;28;20029;-60
2022/09/21 12:07:02;;;;;;;1.73;1.08;;;;;;;;;;5029098;28;20040;-60
2022/09/21 12:09:40;;;;;;;1.80;1.13;;;;;;;;;;5027959;28;20064;-60
2022/09/21 12:12:17;;;;;;;3.03;1.23;;;;;;;;;;5024636;28;20028;-60
2022/09/21 12:15:23;;;;;;;1.27;0.90;;;;;;;;;;5027340;28;20041;-61
2022/09/21 12:18:13;;;;;;;1.67;0.80;;;;;;;;;;5028010;28;20029;-61
2022/09/21 12:20:59;;;;;;;1.02;0.93;;;;;;;;;;5027233;28;20399;-61
2022/09/21 12:23:37;;;;;;;2.30;1.00;;;;;;;;;;5027952;28;20037;-61
2022/09/21 12:26:04;;;;;;;2.53;1.00;;;;;;;;;;5027259;28;20036;-61
2022/09/21 12:28:37;;;;;;;2.63;1.20;;;;;;;;;;5026453;28;20041;-61
2022/09/21 12:31:29;;;;;;;3.67;1.08;;;;;;;;;;5028893;28;20510;-61
2022/09/21 12:33:57;;;;;;;1.08;0.80;;;;;;;;;;5031482;28;20045;-61
2022/09/21 12:36:31;;;;;;;1.27;0.80;;;;;;;;;;5028334;28;20025;-61
2022/09/21 12:39:03;;;;;;;1.17;1.02;;;;;;;;;;5029699;28;20036;-61
2022/09/21 12:41:52;;;;;;;1.27;0.80;;;;;;;;;;5030612;28;20037;-61
2022/09/21 12:44:50;;;;;;;;;;;;;;;;;;5031439;28;20032;-61
2022/09/21 12:47:20;;;;;;;2.55;1.00;;;;;;;;;;5026492;28;19917;-61
2022/09/21 12:49:47;;;;;;;1.40;0.90;;;;;;;;;;5027426;28;20040;-61
2022/09/21 12:52:20;;;;;;;1.95;1.10;;;;;;;;;;5028042;28;20040;-61
2022/09/21 12:55:03;;;;;;;1.10;1.00;;;;;;;;;;5025593;28;20025;-61
2022/09/21 12:57:48;;;;;;;1.58;1.00;;;;;;;;;;5025986;28;20041;-61
2022/09/21 13:00:17;;;;;;;1.35;1.05;;;;;;;;;;5028460;28;20377;-61
2022/09/21 13:03:07;;;;;;;1.58;1.00;;;;;;;;;;5026403;28;20032;-61
2022/09/21 13:05:43;;;;;;;3.75;1.63;;;;;;;;;;5025692;28;20036;-60
2022/09/21 13:08:11;;;;;;;1.30;0.90;;;;;;;;;;5029906;28;20056;-60
2022/09/21 13:11:06;;;;;;;1.38;0.93;;;;;;;;;;5030550;28;20029;-60
2022/09/21 13:13:32;;;;;;;1.00;0.80;;;;;;;;;;5026532;28;20575;-61
2022/09/21 13:15:58;;;;;;;2.60;1.35;;;;;;;;;;5029075;28;20025;-61
2022/09/21 13:18:42;;;;;;;2.85;0.90;;;;;;;;;;5027484;28;20040;-61
2022/09/21 13:21:19;;;;;;;0.80;0.70;;;;;;;;;;5024857;28;20080;-61
2022/09/21 13:23:54;;;;;;;1.38;0.85;;;;;;;;;;5026509;28;20033;-61
2022/09/21 13:26:30;;;;;;;1.27;0.82;;;;;;;;;;5026228;28;20071;-61
2022/09/21 13:28:56;;;;;;;2.28;0.80;;;;;;;;;;5032002;28;20037;-61
2022/09/21 13:31:34;;;;;;;4.00;0.82;;;;;;;;;;5026358;28;20029;-61
2022/09/21 13:34:15;;;;;;;1.45;0.80;;;;;;;;;;5026916;28;20553;-61
2022/09/21 13:36:42;;;;;;;0.80;0.77;;;;;;;;;;5026763;28;20041;-61
2022/09/21 13:39:07;;;;;;;1.33;0.80;;;;;;;;;;5027359;28;20098;-61
2022/09/21 13:41:33;;;;;;;1.83;1.08;;;;;;;;;;5025717;28;20446;-61
2022/09/21 13:44:00;;;;;;;1.50;1.00;;;;;;;;;;5021287;28;20595;-61
2022/09/21 13:46:34;;;;;;;2.05;1.30;;;;;;;;;;5022195;28;20029;-61
2022/09/21 13:49:15;;;;;;;2.15;1.08;;;;;;;;;;5020435;28;20025;-61
2022/09/21 13:52:06;;;;;;;1.65;1.00;;;;;;;;;;5024561;28;20534;-60
2022/09/21 13:54:45;;;;;;;1.65;0.88;;;;;;;;;;5023932;28;21814;-61
2022/09/21 13:57:43;;;;;;;2.17;1.08;;;;;;;;;;5025693;28;20546;-60
2022/09/21 14:00:11;;;;;;;2.97;1.07;;;;;;;;;;5025584;28;20287;-60
2022/09/21 14:02:45;;;;;;;1.77;1.00;;;;;;;;;;5024308;28;20065;-60
2022/09/21 14:05:19;;;;;;;1.80;1.10;;;;;;;;;;5026033;28;20040;-60
2022/09/21 14:07:45;;;;;;;2.88;1.40;;;;;;;;;;5025449;28;20060;-59
2022/09/21 14:10:21;;;;;;;2.17;1.20;;;;;;;;;;5025963;28;20514;-60
2022/09/21 14:12:49;;;;;;;2.40;1.40;;;;;;;;;;5024046;28;20033;-60
2022/09/21 14:15:18;;;;;;;2.25;1.20;;;;;;;;;;5025969;28;20767;-60
2022/09/21 14:17:44;;;;;;;1.50;0.90;;;;;;;;;;5028321;28;20033;-60
2022/09/21 14:20:31;;;;;;;1.35;0.90;;;;;;;;;;5024899;28;20037;-60
2022/09/21 14:23:29;;;;;;;8.00;2.38;;;;;;;;;;5031250;28;20033;-60
2022/09/21 14:25:57;;;;;;;8.15;2.58;;;;;;;;;;5014968;28;20037;-61
2022/09/21 14:28:44;;;;;;;3.28;1.60;;;;;;;;;;5032037;28;20115;-61
2022/09/21 14:31:28;;;;;;;6.13;2.30;;;;;;;;;;5032094;28;20092;-61
2022/09/21 14:33:56;;;;;;;3.15;1.42;;;;;;;;;;5030839;28;20057;-61
2022/09/21 14:36:29;;;;;;;3.15;1.05;;;;;;;;;;5031421;28;20075;-61
2022/09/21 14:38:59;;;;;;;1.58;1.10;;;;;;;;;;5031617;28;20108;-61
2022/09/21 14:41:33;;;;;;;5.28;1.48;;;;;;;;;;5030445;28;20065;-61
2022/09/21 14:43:59;;;;;;;4.13;2.30;;;;;;;;;;5031654;28;20063;-57
2022/09/21 14:46:48;;;;;;;6.05;3.25;;;;;;;;;;5031123;28;20065;-58
2022/09/21 14:49:21;;;;;;;5.85;2.20;;;;;;;;;;5031679;28;20384;-57
2022/09/21 14:52:13;;;;;;;2.72;1.10;;;;;;;;;;5029585;28;20025;-57
2022/09/21 14:55:04;;;;;;;1.88;1.27;;;;;;;;;;5029260;28;20170;-58
2022/09/21 14:58:03;;;;;;;3.75;1.15;;;;;;;;;;5029156;28;20041;-58
2022/09/21 15:00:43;;;;;;;2.70;1.10;;;;;;;;;;5028769;28;20368;-58
2022/09/21 15:03:24;;;;;;;2.55;1.20;;;;;;;;;;5029570;28;20127;-57
2022/09/21 15:12:00;;;;;;;2.60;1.20;;;;;;;;;;5029109;28;20032;-57
2022/09/21 15:14:31;;;;;;;1.27;1.15;;;;;;;;;;5030564;28;20514;-58
2022/09/21 15:16:57;;;;;;;1.50;1.20;;;;;;;;;;5030822;28;20030;-58
2022/09/21 15:19:29;;;;;;;4.50;1.58;;;;;;;;;;5031392;28;20084;-58
2022/09/21 15:22:08;;;;;;;5.20;1.85;;;;;;;;;;5029561;28;20569;-58